Aviation Digital Data Service (ADDS)

Output produced by METARs form (1301 UTC 17 September 2019)
found at http://www.aviationweather.gov/metar/data/
 
Forecast for: GCTS (TENERIFE SUR/REI, ES)
Text: TAF GCTS 170800Z 1709/1809 09018KT 9999 FEW020 TX27/1714Z TN21/1805Z
Forecast period: 0900 to 2200 UTC 17 September 2019
Forecast type: FROM: standard forecast or significant change
Winds: from the E (90 degrees) at 21 MPH (18 knots; 9.3 m/s)
Visibility: 6 or more miles 10+ km)
Ceiling: at least 12,000 feet AGL
Clouds: few clouds at 2000 feet AGL
Weather: no significant weather forecast for this period
Text: TEMPO 1709/1710 07008KT
Forecast period: 0900 to 1000 UTC 17 September 2019
Forecast type: TEMPORARY: The following changes expected for less than half the time period
Winds: from the ENE (70 degrees) at 9 MPH (8 knots; 4.1 m/s)
Visibility: missing
Ceiling: unknown
Clouds: missing
Weather: no significant weather forecast for this period
Text: BECMG 1722/1724 03012KT
Forecast period: 2200 UTC 17 September 2019 to 0900 UTC 18 September 2019
Forecast type: BECOMING: Conditions expected to become as follows by 0000 UTC 18 September 2019
Winds: from the NNE (30 degrees) at 14 MPH (12 knots; 6.2 m/s)
Visibility: 6 or more miles 10+ km)
Ceiling: at least 12,000 feet AGL
Clouds: few clouds at 2000 feet AGL
Weather: no significant weather forecast for this period